This is the latest recevied weather packets stored in our database for station/object OE6PWE-13. If no packets are shown the sender has not sent any weather packets the latest 10 day(s).
| Time | Temp. | Humidity | Pressure | Rain* | Wind** | Luminosity | Snow |
|---|---|---|---|---|---|---|---|
| 1787927412 | 28.89° C | 67% | 1011 hPa | 0 mm | - | - | - |
| 1787926512 | 30° C | 64% | 1011 hPa | 0 mm | - | - | - |
| 1787925622 | 30° C | 62% | 1011 hPa | 0 mm | - | - | - |
| 1787923811 | 31.11° C | 58% | 1012 hPa | 0 mm | - | - | - |
| 1787922912 | 29.44° C | 60% | 1012 hPa | 0 mm | - | - | - |
| 1787922012 | 30.56° C | 62% | 1012 hPa | 0 mm | - | - | - |
| 1787921111 | 30.56° C | 58% | 1012 hPa | 0 mm | - | - | - |
| 1787920212 | 29.44° C | 61% | 1012 hPa | 0 mm | - | - | - |
| 1787919312 | 28.89° C | 63% | 1012 hPa | 0 mm | - | - | - |
| 1787918411 | 27.78° C | 65% | 1013 hPa | 0 mm | - | - | - |
| 1787917512 | 27.78° C | 66% | 1013 hPa | 0 mm | - | - | - |
| 1787916612 | 28.89° C | 64% | 1013 hPa | 0 mm | - | - | - |
| 1787915712 | 27.78° C | 62% | 1013 hPa | 0 mm | - | - | - |
| 1787914812 | 27.22° C | 67% | 1013 hPa | 0 mm | - | - | - |
| 1787913012 | 26.67° C | 65% | 1014 hPa | 0 mm | - | - | - |
| 1787912112 | 26.11° C | 66% | 1014 hPa | 0 mm | - | - | - |
| 1787911212 | 26.67° C | 65% | 1014 hPa | 0 mm | - | - | - |
| 1787910312 | 26.67° C | 64% | 1015 hPa | 0 mm | - | - | - |
| 1787909411 | 26.67° C | 65% | 1015 hPa | 0 mm | - | - | - |
| 1787908512 | 26.11° C | 65% | 1015 hPa | 0 mm | - | - | - |
| 1787907612 | 26.11° C | 64% | 1015 hPa | 0 mm | - | - | - |
| 1787905812 | 24.44° C | 69% | 1016 hPa | 0 mm | - | - | - |
| 1787904912 | 24.44° C | 69% | 1015 hPa | 0 mm | - | - | - |
| 1787904011 | 23.89° C | 69% | 1016 hPa | 0 mm | - | - | - |
| 1787903111 | 23.33° C | 72% | 1016 hPa | 0 mm | - | - | - |
* Rain latest hour (hover to see other rain measurements)
** Current wind speed in m/s (hover to see current wind gust speed)